KRBL

Details ICAO KRBL
Name Red Bluff Muni
Region United States
Timezone America/Los_Angeles (UTC-8.0)
Plans Departing 3
Arriving 11
Stats Elevation 349 ft / 106 m (AMSL)
Location 40.150679° -122.252298°
Runways 1
Magnetic Variation 13.999° E
Sunrise 2017-12-15 15:25:49 UTC / 2017-12-15 07:25:49 Local
Sunset 2017-12-16 00:45:36 UTC / 2017-12-15 16:45:36 Local
Advertisement - Login to hide

Runways

ID Width Length Bearing (true) Bearing (mag) Surface Threshold Offset Overrun Length
15 100 ft / 30 m 5,710 ft / 1,740 m 168.15° 154.15° Asphalt 0 ft / 0 m 0 ft / 0 m
33 100 ft / 30 m 5,710 ft / 1,740 m 348.15° 334.15° Asphalt 0 ft / 0 m 0 ft / 0 m

Map

Weather


0- 5 10 15 20 25 30 35+ Temperature / ° C

Clouds and Precipitation
Forecast for 2017-12-16 06:00 UTC. Updated an hour ago

Ground ~20,000 ft ~40,000 ft Winds

METAR

KRBL 160354Z AUTO 32005KT 10SM BKN110 12/04 A3005 RMK AO2 SLP176 T01170044

TAF

TAF KRBL 152338Z 1600/1624 VRB04KT P6SM OVC200 FM160200 30008KT P6SM OVC200 FM161100 34019G26KT P6SM SKC FM161700 35022G30KT P6SM SKC

Frequencies

Recorded 120.77 MHz ASOS
Unicom 123.00 MHz CTAF/UNICOM
Warning: Do not use this data for real-world aviation or navigation. No guarantee of current accuracy is given.